sensor_id;sensor_type;location;lat;lon;timestamp;P1;durP1;ratioP1;P2;durP2;ratioP2
5454;SDS011;2750;49.050;9.250;2023-03-14T00:01:07;0.20;;;0.20;;
5454;SDS011;2750;49.050;9.250;2023-03-14T00:06:09;0.00;;;0.00;;
5454;SDS011;2750;49.050;9.250;2023-03-14T00:11:14;0.03;;;0.03;;
5454;SDS011;2750;49.050;9.250;2023-03-14T00:16:18;0.00;;;0.00;;
5454;SDS011;2750;49.050;9.250;2023-03-14T00:21:20;0.00;;;0.00;;
5454;SDS011;2750;49.050;9.250;2023-03-14T00:26:23;0.00;;;0.00;;
5454;SDS011;2750;49.050;9.250;2023-03-14T00:31:24;0.00;;;0.00;;
5454;SDS011;2750;49.050;9.250;2023-03-14T00:36:26;0.20;;;0.20;;
5454;SDS011;2750;49.050;9.250;2023-03-14T00:41:29;0.10;;;0.10;;
5454;SDS011;2750;49.050;9.250;2023-03-14T00:46:30;0.03;;;0.03;;
5454;SDS011;2750;49.050;9.250;2023-03-14T00:51:32;0.00;;;0.00;;
5454;SDS011;2750;49.050;9.250;2023-03-14T00:56:35;0.00;;;0.00;;
5454;SDS011;2750;49.050;9.250;2023-03-14T01:01:37;0.00;;;0.00;;
5454;SDS011;2750;49.050;9.250;2023-03-14T01:06:39;0.00;;;0.00;;
5454;SDS011;2750;49.050;9.250;2023-03-14T01:11:42;0.00;;;0.00;;
5454;SDS011;2750;49.050;9.250;2023-03-14T01:16:46;0.00;;;0.00;;
5454;SDS011;2750;49.050;9.250;2023-03-14T01:21:47;0.30;;;0.30;;
5454;SDS011;2750;49.050;9.250;2023-03-14T01:26:50;0.00;;;0.00;;
5454;SDS011;2750;49.050;9.250;2023-03-14T01:31:52;0.50;;;0.30;;
5454;SDS011;2750;49.050;9.250;2023-03-14T01:36:53;0.43;;;0.43;;
5454;SDS011;2750;49.050;9.250;2023-03-14T01:41:56;0.00;;;0.00;;
5454;SDS011;2750;49.050;9.250;2023-03-14T01:46:59;0.10;;;0.10;;
5454;SDS011;2750;49.050;9.250;2023-03-14T01:52:01;0.00;;;0.00;;
5454;SDS011;2750;49.050;9.250;2023-03-14T01:57:08;0.00;;;0.00;;
5454;SDS011;2750;49.050;9.250;2023-03-14T02:02:13;0.10;;;0.10;;
5454;SDS011;2750;49.050;9.250;2023-03-14T02:07:17;0.10;;;0.10;;
5454;SDS011;2750;49.050;9.250;2023-03-14T02:12:22;0.00;;;0.00;;
5454;SDS011;2750;49.050;9.250;2023-03-14T02:17:24;0.00;;;0.00;;
5454;SDS011;2750;49.050;9.250;2023-03-14T02:22:26;0.00;;;0.00;;
5454;SDS011;2750;49.050;9.250;2023-03-14T02:27:29;0.00;;;0.00;;
5454;SDS011;2750;49.050;9.250;2023-03-14T02:32:32;0.00;;;0.00;;
5454;SDS011;2750;49.050;9.250;2023-03-14T02:37:36;0.10;;;0.10;;
5454;SDS011;2750;49.050;9.250;2023-03-14T02:42:43;0.00;;;0.00;;
5454;SDS011;2750;49.050;9.250;2023-03-14T02:47:46;0.00;;;0.00;;
5454;SDS011;2750;49.050;9.250;2023-03-14T02:52:53;0.30;;;0.30;;
5454;SDS011;2750;49.050;9.250;2023-03-14T02:57:56;0.37;;;0.37;;
5454;SDS011;2750;49.050;9.250;2023-03-14T03:02:57;0.00;;;0.00;;
5454;SDS011;2750;49.050;9.250;2023-03-14T03:07:59;0.60;;;0.60;;
5454;SDS011;2750;49.050;9.250;2023-03-14T03:13:02;0.20;;;0.20;;
5454;SDS011;2750;49.050;9.250;2023-03-14T03:18:04;0.00;;;0.00;;
5454;SDS011;2750;49.050;9.250;2023-03-14T03:23:05;0.10;;;0.10;;
5454;SDS011;2750;49.050;9.250;2023-03-14T03:28:08;0.10;;;0.10;;
5454;SDS011;2750;49.050;9.250;2023-03-14T03:33:10;0.00;;;0.00;;
5454;SDS011;2750;49.050;9.250;2023-03-14T03:38:12;0.10;;;0.10;;
5454;SDS011;2750;49.050;9.250;2023-03-14T03:43:15;0.10;;;0.10;;
5454;SDS011;2750;49.050;9.250;2023-03-14T03:48:18;0.00;;;0.00;;
5454;SDS011;2750;49.050;9.250;2023-03-14T03:53:19;0.20;;;0.20;;
5454;SDS011;2750;49.050;9.250;2023-03-14T03:58:22;0.00;;;0.00;;
5454;SDS011;2750;49.050;9.250;2023-03-14T04:03:24;3.30;;;0.67;;
5454;SDS011;2750;49.050;9.250;2023-03-14T04:08:26;0.90;;;0.80;;
5454;SDS011;2750;49.050;9.250;2023-03-14T04:13:29;0.80;;;0.80;;
5454;SDS011;2750;49.050;9.250;2023-03-14T04:18:30;1.00;;;0.90;;
5454;SDS011;2750;49.050;9.250;2023-03-14T04:23:32;2.67;;;1.00;;
5454;SDS011;2750;49.050;9.250;2023-03-14T04:28:35;2.23;;;1.03;;
5454;SDS011;2750;49.050;9.250;2023-03-14T04:33:37;4.00;;;1.20;;
5454;SDS011;2750;49.050;9.250;2023-03-14T04:38:38;3.60;;;1.70;;
5454;SDS011;2750;49.050;9.250;2023-03-14T04:43:42;2.90;;;0.93;;
5454;SDS011;2750;49.050;9.250;2023-03-14T04:48:43;3.03;;;1.10;;
5454;SDS011;2750;49.050;9.250;2023-03-14T04:53:45;2.40;;;1.10;;
5454;SDS011;2750;49.050;9.250;2023-03-14T04:58:48;3.80;;;1.50;;
5454;SDS011;2750;49.050;9.250;2023-03-14T05:03:49;1.27;;;1.10;;
5454;SDS011;2750;49.050;9.250;2023-03-14T05:08:51;2.40;;;1.30;;
5454;SDS011;2750;49.050;9.250;2023-03-14T05:13:54;3.47;;;1.70;;
5454;SDS011;2750;49.050;9.250;2023-03-14T05:18:55;2.50;;;1.33;;
5454;SDS011;2750;49.050;9.250;2023-03-14T05:23:57;2.80;;;1.47;;
5454;SDS011;2750;49.050;9.250;2023-03-14T05:29:00;2.93;;;1.10;;
5454;SDS011;2750;49.050;9.250;2023-03-14T05:34:01;5.20;;;1.37;;
5454;SDS011;2750;49.050;9.250;2023-03-14T05:39:03;6.73;;;1.70;;
5454;SDS011;2750;49.050;9.250;2023-03-14T05:44:06;3.30;;;1.23;;
5454;SDS011;2750;49.050;9.250;2023-03-14T05:49:07;3.20;;;1.10;;
5454;SDS011;2750;49.050;9.250;2023-03-14T05:54:09;4.00;;;1.13;;
5454;SDS011;2750;49.050;9.250;2023-03-14T05:59:12;9.13;;;2.00;;
5454;SDS011;2750;49.050;9.250;2023-03-14T06:04:14;4.17;;;1.60;;
5454;SDS011;2750;49.050;9.250;2023-03-14T06:09:16;1.77;;;0.93;;
5454;SDS011;2750;49.050;9.250;2023-03-14T06:14:21;3.67;;;1.30;;
5454;SDS011;2750;49.050;9.250;2023-03-14T06:19:22;4.77;;;1.63;;
5454;SDS011;2750;49.050;9.250;2023-03-14T06:24:24;1.77;;;1.17;;
5454;SDS011;2750;49.050;9.250;2023-03-14T06:29:27;2.20;;;1.20;;
5454;SDS011;2750;49.050;9.250;2023-03-14T06:34:28;3.73;;;1.13;;
5454;SDS011;2750;49.050;9.250;2023-03-14T06:39:30;4.53;;;1.30;;
5454;SDS011;2750;49.050;9.250;2023-03-14T06:44:33;3.13;;;1.10;;
5454;SDS011;2750;49.050;9.250;2023-03-14T06:49:35;4.07;;;1.50;;
5454;SDS011;2750;49.050;9.250;2023-03-14T06:54:36;2.33;;;1.10;;
5454;SDS011;2750;49.050;9.250;2023-03-14T06:59:39;3.10;;;1.23;;
5454;SDS011;2750;49.050;9.250;2023-03-14T07:04:41;3.90;;;1.17;;
5454;SDS011;2750;49.050;9.250;2023-03-14T07:09:42;2.53;;;1.17;;
5454;SDS011;2750;49.050;9.250;2023-03-14T07:14:45;3.33;;;1.43;;
5454;SDS011;2750;49.050;9.250;2023-03-14T07:19:47;2.10;;;1.00;;
5454;SDS011;2750;49.050;9.250;2023-03-14T07:24:48;1.67;;;0.90;;
5454;SDS011;2750;49.050;9.250;2023-03-14T07:29:51;0.67;;;0.67;;
5454;SDS011;2750;49.050;9.250;2023-03-14T07:34:52;1.13;;;0.93;;
5454;SDS011;2750;49.050;9.250;2023-03-14T07:39:54;2.40;;;0.90;;
5454;SDS011;2750;49.050;9.250;2023-03-14T07:44:57;2.40;;;1.17;;
5454;SDS011;2750;49.050;9.250;2023-03-14T07:49:58;1.63;;;0.90;;
5454;SDS011;2750;49.050;9.250;2023-03-14T07:55:00;2.33;;;1.10;;
5454;SDS011;2750;49.050;9.250;2023-03-14T08:00:03;1.20;;;0.80;;
5454;SDS011;2750;49.050;9.250;2023-03-14T08:05:07;2.30;;;0.80;;
5454;SDS011;2750;49.050;9.250;2023-03-14T08:10:09;2.10;;;0.90;;
5454;SDS011;2750;49.050;9.250;2023-03-14T08:15:14;1.30;;;0.87;;
5454;SDS011;2750;49.050;9.250;2023-03-14T08:20:16;1.57;;;0.60;;
5454;SDS011;2750;49.050;9.250;2023-03-14T08:25:17;3.60;;;1.17;;
5454;SDS011;2750;49.050;9.250;2023-03-14T08:30:21;0.70;;;0.67;;
5454;SDS011;2750;49.050;9.250;2023-03-14T08:35:23;2.10;;;1.00;;
5454;SDS011;2750;49.050;9.250;2023-03-14T08:40:25;1.37;;;1.20;;
5454;SDS011;2750;49.050;9.250;2023-03-14T08:45:28;0.50;;;0.50;;
5454;SDS011;2750;49.050;9.250;2023-03-14T08:50:29;1.00;;;0.90;;
5454;SDS011;2750;49.050;9.250;2023-03-14T08:55:31;1.20;;;0.70;;
5454;SDS011;2750;49.050;9.250;2023-03-14T09:00:34;1.40;;;1.30;;
5454;SDS011;2750;49.050;9.250;2023-03-14T09:05:35;1.70;;;0.70;;
5454;SDS011;2750;49.050;9.250;2023-03-14T09:10:37;2.30;;;0.70;;
5454;SDS011;2750;49.050;9.250;2023-03-14T09:15:40;0.83;;;0.60;;
5454;SDS011;2750;49.050;9.250;2023-03-14T09:20:43;0.70;;;0.50;;
5454;SDS011;2750;49.050;9.250;2023-03-14T09:25:44;0.93;;;0.70;;
5454;SDS011;2750;49.050;9.250;2023-03-14T09:30:47;1.50;;;0.90;;
5454;SDS011;2750;49.050;9.250;2023-03-14T09:35:49;4.03;;;1.57;;
5454;SDS011;2750;49.050;9.250;2023-03-14T09:40:51;1.40;;;1.30;;
5454;SDS011;2750;49.050;9.250;2023-03-14T09:45:55;1.90;;;1.53;;
5454;SDS011;2750;49.050;9.250;2023-03-14T09:50:59;1.57;;;1.00;;
5454;SDS011;2750;49.050;9.250;2023-03-14T09:56:07;1.10;;;0.90;;
5454;SDS011;2750;49.050;9.250;2023-03-14T10:01:15;1.70;;;1.07;;
5454;SDS011;2750;49.050;9.250;2023-03-14T10:06:20;0.60;;;0.60;;
5454;SDS011;2750;49.050;9.250;2023-03-14T10:11:24;1.60;;;0.70;;
5454;SDS011;2750;49.050;9.250;2023-03-14T10:16:29;3.10;;;0.60;;
5454;SDS011;2750;49.050;9.250;2023-03-14T10:21:35;0.70;;;0.70;;
5454;SDS011;2750;49.050;9.250;2023-03-14T10:26:39;0.80;;;0.80;;
5454;SDS011;2750;49.050;9.250;2023-03-14T10:31:50;0.87;;;0.40;;
5454;SDS011;2750;49.050;9.250;2023-03-14T10:36:53;0.40;;;0.40;;
5454;SDS011;2750;49.050;9.250;2023-03-14T10:42:01;0.47;;;0.43;;
5454;SDS011;2750;49.050;9.250;2023-03-14T10:47:14;0.30;;;0.30;;
5454;SDS011;2750;49.050;9.250;2023-03-14T10:52:20;0.30;;;0.30;;
5454;SDS011;2750;49.050;9.250;2023-03-14T10:57:23;0.67;;;0.53;;
5454;SDS011;2750;49.050;9.250;2023-03-14T11:02:34;0.80;;;0.80;;
5454;SDS011;2750;49.050;9.250;2023-03-14T11:07:46;1.13;;;0.43;;
5454;SDS011;2750;49.050;9.250;2023-03-14T11:12:56;1.23;;;0.40;;
5454;SDS011;2750;49.050;9.250;2023-03-14T11:23:50;0.83;;;0.50;;
5454;SDS011;2750;49.050;9.250;2023-03-14T11:29:08;0.93;;;0.40;;
5454;SDS011;2750;49.050;9.250;2023-03-14T11:34:21;0.57;;;0.40;;
5454;SDS011;2750;49.050;9.250;2023-03-14T11:39:36;1.13;;;0.40;;
5454;SDS011;2750;49.050;9.250;2023-03-14T11:44:40;0.40;;;0.40;;
5454;SDS011;2750;49.050;9.250;2023-03-14T11:49:45;0.33;;;0.33;;
5454;SDS011;2750;49.050;9.250;2023-03-14T11:54:53;1.40;;;0.33;;
5454;SDS011;2750;49.050;9.250;2023-03-14T12:00:00;0.50;;;0.50;;
5454;SDS011;2750;49.050;9.250;2023-03-14T12:05:21;0.77;;;0.40;;
5454;SDS011;2750;49.050;9.250;2023-03-14T12:10:37;0.63;;;0.63;;
5454;SDS011;2750;49.050;9.250;2023-03-14T12:15:41;0.40;;;0.40;;
5454;SDS011;2750;49.050;9.250;2023-03-14T12:20:53;0.30;;;0.30;;
5454;SDS011;2750;49.050;9.250;2023-03-14T12:26:08;1.13;;;0.40;;
5454;SDS011;2750;49.050;9.250;2023-03-14T12:36:54;0.70;;;0.70;;
5454;SDS011;2750;49.050;9.250;2023-03-14T12:42:09;0.67;;;0.67;;
5454;SDS011;2750;49.050;9.250;2023-03-14T12:52:45;1.73;;;1.10;;
5454;SDS011;2750;49.050;9.250;2023-03-14T12:58:09;1.03;;;1.00;;
5454;SDS011;2750;49.050;9.250;2023-03-14T13:03:17;1.03;;;0.93;;
5454;SDS011;2750;49.050;9.250;2023-03-14T13:08:38;1.10;;;1.00;;
5454;SDS011;2750;49.050;9.250;2023-03-14T13:13:44;1.67;;;1.47;;
5454;SDS011;2750;49.050;9.250;2023-03-14T13:18:48;1.40;;;1.30;;
5454;SDS011;2750;49.050;9.250;2023-03-14T13:23:55;1.43;;;1.10;;
5454;SDS011;2750;49.050;9.250;2023-03-14T13:29:00;1.13;;;0.77;;
5454;SDS011;2750;49.050;9.250;2023-03-14T13:34:10;1.60;;;1.10;;
5454;SDS011;2750;49.050;9.250;2023-03-14T13:39:13;1.47;;;1.33;;
5454;SDS011;2750;49.050;9.250;2023-03-14T13:44:21;1.27;;;0.83;;
5454;SDS011;2750;49.050;9.250;2023-03-14T13:49:27;1.60;;;1.10;;
5454;SDS011;2750;49.050;9.250;2023-03-14T13:54:31;2.80;;;1.20;;
5454;SDS011;2750;49.050;9.250;2023-03-14T13:59:34;0.73;;;0.63;;
5454;SDS011;2750;49.050;9.250;2023-03-14T14:04:36;1.83;;;0.73;;
5454;SDS011;2750;49.050;9.250;2023-03-14T14:09:39;1.50;;;0.60;;
5454;SDS011;2750;49.050;9.250;2023-03-14T14:14:45;1.87;;;0.80;;
5454;SDS011;2750;49.050;9.250;2023-03-14T14:19:50;0.93;;;0.50;;
5454;SDS011;2750;49.050;9.250;2023-03-14T14:24:53;1.07;;;0.50;;
5454;SDS011;2750;49.050;9.250;2023-03-14T14:30:00;1.77;;;0.83;;
5454;SDS011;2750;49.050;9.250;2023-03-14T14:35:03;1.23;;;1.00;;
5454;SDS011;2750;49.050;9.250;2023-03-14T14:40:07;1.00;;;0.90;;
5454;SDS011;2750;49.050;9.250;2023-03-14T14:45:19;0.93;;;0.80;;
5454;SDS011;2750;49.050;9.250;2023-03-14T14:50:27;1.93;;;0.80;;
5454;SDS011;2750;49.050;9.250;2023-03-14T14:55:31;1.97;;;1.00;;
5454;SDS011;2750;49.050;9.250;2023-03-14T15:00:38;1.60;;;1.17;;
5454;SDS011;2750;49.050;9.250;2023-03-14T15:05:42;1.97;;;1.23;;
5454;SDS011;2750;49.050;9.250;2023-03-14T15:10:43;3.70;;;1.10;;
5454;SDS011;2750;49.050;9.250;2023-03-14T15:15:46;0.80;;;0.53;;
5454;SDS011;2750;49.050;9.250;2023-03-14T15:20:48;1.10;;;0.80;;
5454;SDS011;2750;49.050;9.250;2023-03-14T15:25:50;2.37;;;1.20;;
5454;SDS011;2750;49.050;9.250;2023-03-14T15:30:54;3.17;;;1.07;;
5454;SDS011;2750;49.050;9.250;2023-03-14T15:35:56;1.63;;;1.10;;
5454;SDS011;2750;49.050;9.250;2023-03-14T15:40:59;1.07;;;0.90;;
5454;SDS011;2750;49.050;9.250;2023-03-14T15:46:02;1.27;;;1.00;;
5454;SDS011;2750;49.050;9.250;2023-03-14T15:51:06;1.50;;;0.90;;
5454;SDS011;2750;49.050;9.250;2023-03-14T15:56:10;3.47;;;1.00;;
5454;SDS011;2750;49.050;9.250;2023-03-14T16:01:15;1.77;;;0.80;;
5454;SDS011;2750;49.050;9.250;2023-03-14T16:06:17;1.37;;;1.03;;
5454;SDS011;2750;49.050;9.250;2023-03-14T16:11:19;1.60;;;1.00;;
5454;SDS011;2750;49.050;9.250;2023-03-14T16:16:22;3.50;;;1.20;;
5454;SDS011;2750;49.050;9.250;2023-03-14T16:21:23;3.63;;;1.30;;
5454;SDS011;2750;49.050;9.250;2023-03-14T16:26:25;5.37;;;1.30;;
5454;SDS011;2750;49.050;9.250;2023-03-14T16:31:28;3.03;;;1.23;;
5454;SDS011;2750;49.050;9.250;2023-03-14T16:36:29;1.90;;;1.40;;
5454;SDS011;2750;49.050;9.250;2023-03-14T16:41:31;3.03;;;1.80;;
5454;SDS011;2750;49.050;9.250;2023-03-14T16:46:35;5.07;;;1.97;;
5454;SDS011;2750;49.050;9.250;2023-03-14T16:51:37;2.10;;;1.30;;
5454;SDS011;2750;49.050;9.250;2023-03-14T16:56:39;3.80;;;1.57;;
5454;SDS011;2750;49.050;9.250;2023-03-14T17:01:42;2.37;;;1.13;;
5454;SDS011;2750;49.050;9.250;2023-03-14T17:06:44;5.13;;;1.30;;
5454;SDS011;2750;49.050;9.250;2023-03-14T17:11:46;2.63;;;1.30;;
5454;SDS011;2750;49.050;9.250;2023-03-14T17:16:49;4.67;;;1.70;;
5454;SDS011;2750;49.050;9.250;2023-03-14T17:21:50;3.80;;;1.77;;
5454;SDS011;2750;49.050;9.250;2023-03-14T17:26:52;2.87;;;1.40;;
5454;SDS011;2750;49.050;9.250;2023-03-14T17:31:55;3.83;;;2.47;;
5454;SDS011;2750;49.050;9.250;2023-03-14T17:36:56;3.67;;;1.23;;
5454;SDS011;2750;49.050;9.250;2023-03-14T17:41:58;4.10;;;1.43;;
5454;SDS011;2750;49.050;9.250;2023-03-14T17:47:01;1.93;;;0.90;;
5454;SDS011;2750;49.050;9.250;2023-03-14T17:52:03;1.23;;;1.13;;
5454;SDS011;2750;49.050;9.250;2023-03-14T17:57:07;2.47;;;1.40;;
5454;SDS011;2750;49.050;9.250;2023-03-14T18:02:10;2.67;;;1.40;;
5454;SDS011;2750;49.050;9.250;2023-03-14T18:07:13;2.33;;;1.70;;
5454;SDS011;2750;49.050;9.250;2023-03-14T18:12:14;5.50;;;1.53;;
5454;SDS011;2750;49.050;9.250;2023-03-14T18:17:17;2.93;;;1.70;;
5454;SDS011;2750;49.050;9.250;2023-03-14T18:22:19;7.53;;;1.90;;
5454;SDS011;2750;49.050;9.250;2023-03-14T18:27:20;3.77;;;2.20;;
5454;SDS011;2750;49.050;9.250;2023-03-14T18:32:23;5.23;;;2.37;;
5454;SDS011;2750;49.050;9.250;2023-03-14T18:37:25;4.23;;;1.70;;
5454;SDS011;2750;49.050;9.250;2023-03-14T18:42:26;3.57;;;1.60;;
5454;SDS011;2750;49.050;9.250;2023-03-14T18:47:29;2.90;;;1.80;;
5454;SDS011;2750;49.050;9.250;2023-03-14T18:52:34;4.67;;;1.93;;
5454;SDS011;2750;49.050;9.250;2023-03-14T18:57:36;3.30;;;1.63;;
5454;SDS011;2750;49.050;9.250;2023-03-14T19:02:39;4.60;;;2.10;;
5454;SDS011;2750;49.050;9.250;2023-03-14T19:07:41;3.80;;;1.50;;
5454;SDS011;2750;49.050;9.250;2023-03-14T19:12:42;2.73;;;1.60;;
5454;SDS011;2750;49.050;9.250;2023-03-14T19:17:45;2.80;;;1.60;;
5454;SDS011;2750;49.050;9.250;2023-03-14T19:22:47;2.80;;;1.40;;
5454;SDS011;2750;49.050;9.250;2023-03-14T19:27:48;2.13;;;1.40;;
5454;SDS011;2750;49.050;9.250;2023-03-14T19:32:51;1.83;;;1.00;;
5454;SDS011;2750;49.050;9.250;2023-03-14T19:37:53;7.03;;;1.53;;
5454;SDS011;2750;49.050;9.250;2023-03-14T19:42:55;5.73;;;2.67;;
5454;SDS011;2750;49.050;9.250;2023-03-14T19:47:58;1.67;;;1.50;;
5454;SDS011;2750;49.050;9.250;2023-03-14T19:53:00;3.30;;;1.37;;
5454;SDS011;2750;49.050;9.250;2023-03-14T19:58:01;2.90;;;1.50;;
5454;SDS011;2750;49.050;9.250;2023-03-14T20:03:04;3.20;;;1.53;;
5454;SDS011;2750;49.050;9.250;2023-03-14T20:08:06;1.97;;;1.77;;
5454;SDS011;2750;49.050;9.250;2023-03-14T20:13:08;3.57;;;1.00;;
5454;SDS011;2750;49.050;9.250;2023-03-14T20:18:11;4.80;;;1.87;;
5454;SDS011;2750;49.050;9.250;2023-03-14T20:23:12;3.63;;;1.73;;
5454;SDS011;2750;49.050;9.250;2023-03-14T20:28:14;5.83;;;2.67;;
5454;SDS011;2750;49.050;9.250;2023-03-14T20:33:17;3.87;;;2.03;;
5454;SDS011;2750;49.050;9.250;2023-03-14T20:38:19;6.63;;;4.77;;
5454;SDS011;2750;49.050;9.250;2023-03-14T20:43:20;8.63;;;4.83;;
5454;SDS011;2750;49.050;9.250;2023-03-14T20:48:24;4.03;;;1.63;;
5454;SDS011;2750;49.050;9.250;2023-03-14T20:53:26;16.43;;;10.63;;
5454;SDS011;2750;49.050;9.250;2023-03-14T20:58:28;2.37;;;1.50;;
5454;SDS011;2750;49.050;9.250;2023-03-14T21:03:31;3.50;;;1.37;;
5454;SDS011;2750;49.050;9.250;2023-03-14T21:08:33;2.97;;;1.77;;
5454;SDS011;2750;49.050;9.250;2023-03-14T21:13:34;2.17;;;1.77;;
5454;SDS011;2750;49.050;9.250;2023-03-14T21:18:37;6.33;;;2.33;;
5454;SDS011;2750;49.050;9.250;2023-03-14T21:23:39;4.87;;;2.60;;
5454;SDS011;2750;49.050;9.250;2023-03-14T21:28:40;3.00;;;2.57;;
5454;SDS011;2750;49.050;9.250;2023-03-14T21:33:44;3.23;;;1.83;;
5454;SDS011;2750;49.050;9.250;2023-03-14T21:38:47;4.23;;;2.53;;
5454;SDS011;2750;49.050;9.250;2023-03-14T21:43:49;6.70;;;2.20;;
5454;SDS011;2750;49.050;9.250;2023-03-14T21:48:52;2.47;;;2.27;;
5454;SDS011;2750;49.050;9.250;2023-03-14T21:53:54;5.63;;;3.50;;
5454;SDS011;2750;49.050;9.250;2023-03-14T21:58:55;3.97;;;2.43;;
5454;SDS011;2750;49.050;9.250;2023-03-14T22:04:00;4.80;;;4.03;;
5454;SDS011;2750;49.050;9.250;2023-03-14T22:09:01;5.60;;;4.80;;
5454;SDS011;2750;49.050;9.250;2023-03-14T22:14:03;7.03;;;4.07;;
5454;SDS011;2750;49.050;9.250;2023-03-14T22:19:06;4.60;;;4.13;;
5454;SDS011;2750;49.050;9.250;2023-03-14T22:24:08;6.53;;;4.70;;
5454;SDS011;2750;49.050;9.250;2023-03-14T22:29:09;5.47;;;4.93;;
5454;SDS011;2750;49.050;9.250;2023-03-14T22:34:12;3.10;;;2.40;;
5454;SDS011;2750;49.050;9.250;2023-03-14T22:39:14;4.83;;;3.20;;
5454;SDS011;2750;49.050;9.250;2023-03-14T22:44:16;6.33;;;3.30;;
5454;SDS011;2750;49.050;9.250;2023-03-14T22:49:19;4.37;;;2.60;;
5454;SDS011;2750;49.050;9.250;2023-03-14T22:54:21;9.40;;;3.13;;
5454;SDS011;2750;49.050;9.250;2023-03-14T22:59:22;6.13;;;4.23;;
5454;SDS011;2750;49.050;9.250;2023-03-14T23:04:27;7.47;;;4.30;;
5454;SDS011;2750;49.050;9.250;2023-03-14T23:09:28;6.97;;;3.67;;
5454;SDS011;2750;49.050;9.250;2023-03-14T23:14:30;7.57;;;3.70;;
5454;SDS011;2750;49.050;9.250;2023-03-14T23:19:33;5.10;;;3.17;;
5454;SDS011;2750;49.050;9.250;2023-03-14T23:24:38;4.23;;;2.10;;
5454;SDS011;2750;49.050;9.250;2023-03-14T23:29:40;5.97;;;2.80;;
5454;SDS011;2750;49.050;9.250;2023-03-14T23:34:43;8.67;;;3.87;;
5454;SDS011;2750;49.050;9.250;2023-03-14T23:39:44;7.00;;;3.80;;
5454;SDS011;2750;49.050;9.250;2023-03-14T23:44:46;10.30;;;5.47;;
5454;SDS011;2750;49.050;9.250;2023-03-14T23:49:49;7.23;;;4.50;;
5454;SDS011;2750;49.050;9.250;2023-03-14T23:54:50;10.53;;;4.53;;
5454;SDS011;2750;49.050;9.250;2023-03-14T23:59:52;9.37;;;5.77;;
